createdAt,value
2019-04-03T00:01:43.826Z,12.73
2019-04-03T00:04:14.606Z,11.87
2019-04-03T00:06:45.047Z,12.10
2019-04-03T00:09:15.792Z,13.17
2019-04-03T00:11:46.471Z,13.50
2019-04-03T00:14:17.914Z,13.03
2019-04-03T00:16:48.514Z,13.40
2019-04-03T00:19:19.256Z,13.80
2019-04-03T00:21:50.642Z,13.33
2019-04-03T00:24:23.066Z,13.10
2019-04-03T00:26:55.510Z,12.67
2019-04-03T00:29:26.243Z,13.53
2019-04-03T00:31:56.857Z,13.13
2019-04-03T00:34:27.547Z,12.37
2019-04-03T00:36:58.311Z,12.87
2019-04-03T00:39:28.994Z,13.87
2019-04-03T00:41:59.665Z,11.77
2019-04-03T00:44:30.348Z,11.97
2019-04-03T00:47:01.851Z,11.93
2019-04-03T00:49:32.833Z,12.87
2019-04-03T00:52:03.349Z,12.13
2019-04-03T00:54:34.246Z,12.10
2019-04-03T00:57:05.249Z,12.43
2019-04-03T00:59:35.871Z,12.03
2019-04-03T01:02:06.430Z,11.77
2019-04-03T01:04:37.121Z,12.73
2019-04-03T01:07:08.093Z,12.93
2019-04-03T01:09:39.295Z,12.07
2019-04-03T01:12:09.925Z,12.33
2019-04-03T01:14:40.894Z,12.10
2019-04-03T01:17:12.953Z,12.27
2019-04-03T01:19:43.859Z,12.63
2019-04-03T01:22:14.636Z,11.63
2019-04-03T01:24:45.236Z,12.47
2019-04-03T01:27:15.873Z,12.53
2019-04-03T01:29:46.559Z,13.50
2019-04-03T01:32:17.020Z,13.60
2019-04-03T01:34:47.976Z,14.00
2019-04-03T01:37:19.413Z,13.70
2019-04-03T01:39:50.899Z,14.83
2019-04-03T01:42:22.901Z,14.70
2019-04-03T01:44:55.457Z,15.27
2019-04-03T01:47:27.821Z,16.13
2019-04-03T01:50:00.072Z,14.03
2019-04-03T01:52:31.840Z,14.47
2019-04-03T01:55:04.094Z,15.57
2019-04-03T01:57:36.797Z,14.57
2019-04-03T02:00:08.225Z,14.93
2019-04-03T02:02:39.481Z,14.27
2019-04-03T02:05:12.726Z,13.53
2019-04-03T02:07:44.718Z,14.77
2019-04-03T02:10:19.405Z,13.80
2019-04-03T02:12:51.277Z,14.90
2019-04-03T02:15:22.330Z,15.10
2019-04-03T02:17:54.985Z,14.87
2019-04-03T02:20:26.779Z,16.07
2019-04-03T02:23:00.420Z,15.10
2019-04-03T02:25:32.123Z,16.10
2019-04-03T02:28:04.023Z,16.53
2019-04-03T02:30:35.044Z,16.10
2019-04-03T02:33:05.842Z,15.47
2019-04-03T02:35:38.944Z,16.60
2019-04-03T02:38:08.539Z,16.60
2019-04-03T02:40:39.302Z,16.30
2019-04-03T02:43:13.652Z,17.27
2019-04-03T02:45:42.299Z,15.87
2019-04-03T02:48:12.842Z,15.13
2019-04-03T02:50:47.630Z,15.07
2019-04-03T02:53:17.178Z,14.10
2019-04-03T02:55:48.860Z,14.43
2019-04-03T02:58:21.954Z,13.20
2019-04-03T03:00:51.709Z,12.90
2019-04-03T03:03:23.766Z,13.53
2019-04-03T03:05:54.565Z,13.13
2019-04-03T03:08:25.129Z,12.43
2019-04-03T03:10:56.898Z,13.50
2019-04-03T03:13:29.275Z,12.23
2019-04-03T03:16:00.452Z,12.10
2019-04-03T03:18:31.289Z,13.33
2019-04-03T03:21:04.391Z,15.67
2019-04-03T03:23:35.442Z,13.57
2019-04-03T03:26:06.594Z,13.70
2019-04-03T03:28:37.308Z,11.63
2019-04-03T03:31:09.654Z,11.53
2019-04-03T03:33:41.765Z,12.07
2019-04-03T03:36:19.847Z,11.97
2019-04-03T03:38:46.202Z,12.07
2019-04-03T03:41:22.094Z,12.27
2019-04-03T03:43:50.174Z,12.43
2019-04-03T03:46:26.455Z,12.10
2019-04-03T03:48:54.881Z,11.50
2019-04-03T03:51:30.123Z,12.20
2019-04-03T03:53:58.241Z,11.80
2019-04-03T03:56:31.252Z,12.07
2019-04-03T03:59:01.436Z,11.67
2019-04-03T04:01:32.687Z,10.73
2019-04-03T04:04:03.516Z,12.23
2019-04-03T04:06:36.278Z,11.30
2019-04-03T04:09:08.391Z,11.60
2019-04-03T04:11:39.969Z,11.97
2019-04-03T04:14:11.674Z,12.43
2019-04-03T04:16:42.999Z,13.90
2019-04-03T04:19:14.005Z,14.47
2019-04-03T04:21:45.242Z,13.57
2019-04-03T04:24:15.972Z,14.80
2019-04-03T04:26:49.632Z,14.20
2019-04-03T04:29:19.079Z,16.13
2019-04-03T04:31:49.927Z,15.23
2019-04-03T04:34:20.558Z,15.00
2019-04-03T04:36:51.248Z,13.57
2019-04-03T04:39:22.919Z,14.00
2019-04-03T04:41:53.652Z,14.17
2019-04-03T04:44:24.244Z,13.77
2019-04-03T04:46:55.418Z,14.43
2019-04-03T04:49:25.916Z,15.07
2019-04-03T04:51:57.581Z,15.23
2019-04-03T04:54:30.108Z,16.23
2019-04-03T04:57:00.916Z,15.27
2019-04-03T04:59:31.653Z,15.40
2019-04-03T05:02:02.210Z,15.17
2019-04-03T05:04:32.801Z,17.53
2019-04-03T05:07:03.449Z,18.13
2019-04-03T05:09:34.802Z,16.37
2019-04-03T05:12:09.347Z,16.87
2019-04-03T05:14:38.426Z,15.87
2019-04-03T05:17:09.444Z,16.07
2019-04-03T05:19:40.662Z,14.63
2019-04-03T05:22:11.478Z,14.40
2019-04-03T05:24:42.972Z,13.93
2019-04-03T05:27:13.675Z,12.87
2019-04-03T05:29:44.437Z,14.67
2019-04-03T05:32:14.957Z,13.47
2019-04-03T05:34:45.379Z,12.83
2019-04-03T05:37:18.099Z,12.80
2019-04-03T05:39:48.773Z,14.13
2019-04-03T05:42:19.426Z,13.97
2019-04-03T05:44:50.148Z,15.47
2019-04-03T05:47:20.898Z,15.10
2019-04-03T05:49:55.575Z,16.00
2019-04-03T05:52:25.425Z,14.30
2019-04-03T05:54:56.582Z,14.97
2019-04-03T05:57:28.895Z,14.50
2019-04-03T06:00:02.295Z,14.20
2019-04-03T06:02:32.581Z,13.50
2019-04-03T06:05:06.061Z,13.37
2019-04-03T06:07:35.892Z,13.47
2019-04-03T06:10:07.262Z,13.60
2019-04-03T06:12:38.389Z,12.87
2019-04-03T06:15:10.337Z,13.43
2019-04-03T06:17:41.894Z,13.70
2019-04-03T06:20:13.019Z,13.67
2019-04-03T06:22:43.880Z,14.33
2019-04-03T06:25:15.710Z,13.20
2019-04-03T06:27:46.570Z,13.00
2019-04-03T06:30:17.908Z,13.13
2019-04-03T06:32:48.744Z,13.57
2019-04-03T06:35:20.507Z,13.03
2019-04-03T06:37:52.818Z,13.80
2019-04-03T06:40:23.491Z,13.10
2019-04-03T06:42:54.246Z,14.30
2019-04-03T06:45:26.130Z,14.17
2019-04-03T06:47:57.764Z,14.43
2019-04-03T06:50:28.459Z,13.73
2019-04-03T06:52:59.123Z,14.00
2019-04-03T06:55:30.679Z,12.50
2019-04-03T06:58:01.363Z,13.70
2019-04-03T07:00:32.501Z,15.20
2019-04-03T07:03:04.010Z,13.80
2019-04-03T07:05:36.338Z,12.80
2019-04-03T07:08:07.151Z,13.50
2019-04-03T07:10:40.279Z,13.17
2019-04-03T07:13:11.306Z,13.90
2019-04-03T07:15:42.005Z,13.47
2019-04-03T07:18:12.850Z,12.50
2019-04-03T07:20:43.718Z,12.30
2019-04-03T07:23:14.430Z,12.17
2019-04-03T07:25:45.121Z,13.17
2019-04-03T07:28:15.580Z,11.40
2019-04-03T07:30:46.694Z,11.93
2019-04-03T07:33:17.491Z,11.83
2019-04-03T07:35:48.107Z,11.53
2019-04-03T07:38:19.769Z,11.63
2019-04-03T07:40:51.771Z,13.17
2019-04-03T07:43:26.294Z,13.57
2019-04-03T07:45:56.671Z,13.00
2019-04-03T07:48:27.506Z,11.47
2019-04-03T07:50:58.430Z,12.40
2019-04-03T07:53:29.041Z,12.43
2019-04-03T07:55:59.802Z,11.73
2019-04-03T07:58:32.493Z,13.50
2019-04-03T08:01:03.858Z,11.50
2019-04-03T08:03:34.329Z,11.57
2019-04-03T08:06:05.194Z,13.17
2019-04-03T08:08:35.965Z,11.90
2019-04-03T08:11:06.533Z,12.47
2019-04-03T08:13:38.147Z,12.37
2019-04-03T08:16:09.263Z,11.93
2019-04-03T08:18:39.827Z,13.03
2019-04-03T08:21:10.517Z,12.70
2019-04-03T08:23:41.065Z,12.63
2019-04-03T08:26:12.224Z,12.27
2019-04-03T08:28:42.901Z,12.53
2019-04-03T08:31:13.489Z,12.30
2019-04-03T08:33:44.244Z,11.10
2019-04-03T08:36:24.063Z,10.17
2019-04-03T08:38:47.541Z,11.60
2019-04-03T08:41:18.263Z,11.03
2019-04-03T08:43:48.952Z,12.07
2019-04-03T08:46:19.928Z,10.67
2019-04-03T08:48:50.746Z,10.87
2019-04-03T08:51:21.458Z,11.00
2019-04-03T08:53:54.064Z,11.73
2019-04-03T08:56:24.358Z,9.90
2019-04-03T08:58:57.325Z,10.30
2019-04-03T09:01:28.457Z,10.20
2019-04-03T09:03:59.186Z,10.80
2019-04-03T09:06:30.336Z,11.70
2019-04-03T09:09:01.296Z,10.40
2019-04-03T09:11:34.031Z,10.60
2019-04-03T09:14:06.164Z,10.87
2019-04-03T09:16:36.982Z,10.30
2019-04-03T09:19:10.226Z,10.30
2019-04-03T09:21:41.075Z,10.33
2019-04-03T09:24:11.965Z,10.03
2019-04-03T09:26:42.586Z,10.20
2019-04-03T09:29:13.747Z,9.70
2019-04-03T09:31:46.429Z,10.40
2019-04-03T09:34:17.201Z,10.80
2019-04-03T09:36:48.122Z,10.37
2019-04-03T09:39:18.715Z,10.17
2019-04-03T09:41:50.903Z,9.73
2019-04-03T09:44:24.645Z,10.27
2019-04-03T09:46:54.058Z,10.47
2019-04-03T09:49:26.662Z,9.20
2019-04-03T09:51:57.390Z,10.00
2019-04-03T09:54:28.770Z,9.63
2019-04-03T09:57:04.470Z,8.53
2019-04-03T09:59:32.157Z,10.13
2019-04-03T10:02:03.428Z,9.67
2019-04-03T10:04:34.311Z,9.37
2019-04-03T10:07:05.604Z,9.70
2019-04-03T10:09:38.467Z,9.90
2019-04-03T10:12:09.272Z,9.37
2019-04-03T10:14:40.323Z,9.00
2019-04-03T10:17:11.616Z,8.43
2019-04-03T10:19:44.752Z,9.03
2019-04-03T10:22:15.204Z,8.57
2019-04-03T10:24:46.140Z,8.67
2019-04-03T10:27:18.092Z,8.63
2019-04-03T10:29:50.228Z,8.60
2019-04-03T10:32:21.374Z,9.10
2019-04-03T10:34:52.284Z,9.57
2019-04-03T10:37:23.424Z,9.80
2019-04-03T10:39:57.000Z,7.73
2019-04-03T10:42:29.231Z,8.90
2019-04-03T10:45:01.081Z,8.70
2019-04-03T10:47:41.104Z,9.13
2019-04-03T10:50:05.435Z,8.30
2019-04-03T10:52:37.631Z,8.83
2019-04-03T10:55:09.146Z,7.87
2019-04-03T10:57:39.684Z,7.73
2019-04-03T11:00:12.463Z,7.30
2019-04-03T11:02:43.100Z,8.60
2019-04-03T11:05:14.588Z,7.77
2019-04-03T11:07:45.327Z,7.87
2019-04-03T11:10:16.211Z,7.50
2019-04-03T11:12:47.031Z,7.17
2019-04-03T11:15:18.170Z,7.80
2019-04-03T11:17:50.002Z,7.87
2019-04-03T11:20:20.986Z,7.63
2019-04-03T11:23:04.306Z,7.37
2019-04-03T11:25:24.160Z,8.27
2019-04-03T11:27:55.026Z,7.90
2019-04-03T11:30:26.414Z,7.53
2019-04-03T11:32:57.349Z,7.33
2019-04-03T11:35:28.059Z,6.97
2019-04-03T11:37:58.580Z,7.30
2019-04-03T11:40:30.692Z,7.47
2019-04-03T11:43:01.593Z,7.73
2019-04-03T11:45:32.649Z,7.20
2019-04-03T11:48:03.610Z,7.07
2019-04-03T11:50:34.646Z,7.10
2019-04-03T11:53:07.616Z,6.63
2019-04-03T11:55:37.944Z,7.33
2019-04-03T11:58:08.836Z,7.20
2019-04-03T12:00:45.597Z,7.33
2019-04-03T12:03:16.554Z,6.30
2019-04-03T12:05:47.555Z,7.00
2019-04-03T12:08:20.574Z,6.97
2019-04-03T12:10:51.332Z,6.37
2019-04-03T12:13:22.103Z,7.03
2019-04-03T12:15:56.203Z,7.33
2019-04-03T12:18:25.804Z,7.30
2019-04-03T12:20:56.778Z,6.60
2019-04-03T12:23:27.810Z,7.07
2019-04-03T12:25:59.088Z,7.27
2019-04-03T12:28:32.770Z,6.90
2019-04-03T12:31:02.780Z,7.10
2019-04-03T12:33:33.774Z,6.80
2019-04-03T12:36:06.520Z,6.90
2019-04-03T12:38:36.974Z,6.83
2019-04-03T12:41:09.285Z,7.00
2019-04-03T12:43:40.072Z,6.77
2019-04-03T12:46:10.546Z,7.27
2019-04-03T12:48:41.138Z,6.50
2019-04-03T12:51:12.155Z,6.57
2019-04-03T12:53:42.846Z,6.93
2019-04-03T12:56:13.319Z,6.20
2019-04-03T12:58:44.174Z,6.47
2019-04-03T13:01:15.350Z,6.87
2019-04-03T13:03:46.712Z,7.33
2019-04-03T13:06:17.236Z,6.63
2019-04-03T13:08:47.859Z,6.33
2019-04-03T13:11:19.910Z,6.10
2019-04-03T13:13:51.448Z,6.50
2019-04-03T13:16:22.587Z,7.30
2019-04-03T13:18:53.243Z,6.57
2019-04-03T13:21:23.843Z,6.90
2019-04-03T13:23:55.266Z,6.13
2019-04-03T13:26:27.319Z,5.77
2019-04-03T13:28:57.971Z,6.20
2019-04-03T13:31:28.535Z,6.33
2019-04-03T13:33:59.127Z,6.07
2019-04-03T13:36:29.938Z,6.30
2019-04-03T13:39:01.509Z,6.23
2019-04-03T13:41:34.795Z,6.13
2019-04-03T13:44:07.237Z,6.70
2019-04-03T13:46:38.097Z,6.97
2019-04-03T13:49:08.863Z,6.30
2019-04-03T13:51:39.580Z,7.17
2019-04-03T13:54:10.462Z,6.03
2019-04-03T13:56:43.047Z,6.27
2019-04-03T13:59:13.526Z,10.27
2019-04-03T14:01:45.338Z,8.03
2019-04-03T14:04:16.060Z,11.17
2019-04-03T14:06:48.414Z,9.10
2019-04-03T14:09:19.564Z,8.10
2019-04-03T14:11:50.440Z,8.17
2019-04-03T14:14:22.434Z,7.40
2019-04-03T14:16:54.827Z,8.23
2019-04-03T14:19:25.944Z,7.00
2019-04-03T14:21:58.725Z,6.70
2019-04-03T14:24:39.303Z,5.90
2019-04-03T14:27:02.318Z,7.40
2019-04-03T14:29:33.737Z,6.80
2019-04-03T14:32:04.460Z,6.30
2019-04-03T14:34:35.542Z,7.15
2019-04-03T14:37:06.327Z,6.37
2019-04-03T14:39:39.484Z,7.00
2019-04-03T14:42:09.552Z,6.77
2019-04-03T14:44:41.675Z,6.67
2019-04-03T14:47:13.661Z,7.10
2019-04-03T14:49:44.171Z,7.03
2019-04-03T14:52:15.024Z,6.57
2019-04-03T14:54:47.179Z,6.60
2019-04-03T14:57:22.664Z,6.83
2019-04-03T14:59:51.933Z,6.47
2019-04-03T15:02:23.746Z,6.67
2019-04-03T15:04:54.732Z,7.20
2019-04-03T15:07:25.461Z,7.30
2019-04-03T15:09:57.220Z,7.37
2019-04-03T15:12:29.116Z,7.40
2019-04-03T15:15:00.697Z,6.77
2019-04-03T15:17:34.117Z,7.13
2019-04-03T15:20:07.101Z,6.57
2019-04-03T15:22:38.128Z,6.77
2019-04-03T15:25:09.011Z,7.57
2019-04-03T15:27:39.609Z,7.33
2019-04-03T15:30:11.902Z,7.53
2019-04-03T15:32:43.461Z,7.50
2019-04-03T15:35:14.800Z,7.37
2019-04-03T15:37:46.003Z,8.07
2019-04-03T15:40:18.527Z,7.07
2019-04-03T15:42:49.255Z,7.17
2019-04-03T15:45:24.173Z,7.57
2019-04-03T15:47:55.251Z,8.20
2019-04-03T15:50:27.449Z,6.93
2019-04-03T15:52:57.454Z,7.60
2019-04-03T15:55:28.783Z,7.53
2019-04-03T15:57:59.510Z,8.17
2019-04-03T16:00:30.587Z,7.73
2019-04-03T16:03:01.388Z,7.63
2019-04-03T16:05:35.626Z,7.27
2019-04-03T16:08:05.192Z,8.20
2019-04-03T16:10:36.214Z,7.93
2019-04-03T16:13:07.144Z,8.57
2019-04-03T16:15:38.917Z,8.93
2019-04-03T16:18:09.535Z,8.73
2019-04-03T16:20:40.378Z,8.63
2019-04-03T16:23:12.835Z,9.10
2019-04-03T16:25:43.498Z,8.47
2019-04-03T16:28:14.305Z,9.07
2019-04-03T16:30:48.777Z,8.50
2019-04-03T16:33:21.514Z,9.00
2019-04-03T16:35:50.299Z,8.40
2019-04-03T16:38:21.818Z,9.83
2019-04-03T16:40:53.191Z,8.70
2019-04-03T16:43:24.194Z,9.27
2019-04-03T16:45:55.023Z,9.13
2019-04-03T16:48:25.688Z,9.40
2019-04-03T16:50:58.932Z,9.03
2019-04-03T16:53:28.838Z,9.43
2019-04-03T16:56:00.014Z,9.37
2019-04-03T16:58:31.077Z,9.53
2019-04-03T17:01:01.600Z,10.13
2019-04-03T17:03:33.765Z,10.57
2019-04-03T17:06:04.405Z,11.20
2019-04-03T17:08:35.126Z,11.13
2019-04-03T17:11:06.171Z,11.03
2019-04-03T17:13:37.346Z,11.37
2019-04-03T17:16:07.868Z,10.70
2019-04-03T17:18:38.500Z,10.93
2019-04-03T17:21:08.949Z,13.07
2019-04-03T17:23:39.946Z,13.63
2019-04-03T17:26:10.904Z,14.73
2019-04-03T17:28:41.942Z,13.47
2019-04-03T17:31:13.726Z,13.47
2019-04-03T17:33:44.517Z,13.40
2019-04-03T17:36:17.196Z,13.90
2019-04-03T17:38:48.063Z,13.90
2019-04-03T17:41:19.173Z,12.80
2019-04-03T17:43:51.493Z,14.83
2019-04-03T17:46:22.225Z,14.77
2019-04-03T17:48:55.275Z,14.90
2019-04-03T17:51:26.371Z,15.40
2019-04-03T17:53:57.246Z,14.90
2019-04-03T17:56:28.189Z,15.40
2019-04-03T17:58:59.315Z,14.67
2019-04-03T18:01:29.844Z,16.93
2019-04-03T18:04:00.623Z,16.80
2019-04-03T18:06:31.539Z,17.03
2019-04-03T18:09:04.019Z,16.43
2019-04-03T18:11:35.204Z,16.07
2019-04-03T18:14:06.145Z,16.40
2019-04-03T18:16:37.049Z,15.40
2019-04-03T18:19:07.921Z,14.23
2019-04-03T18:21:38.746Z,15.47
2019-04-03T18:24:09.648Z,15.50
2019-04-03T18:26:40.331Z,15.33
2019-04-03T18:29:11.373Z,15.87
2019-04-03T18:31:44.315Z,15.03
2019-04-03T18:34:15.386Z,16.07
2019-04-03T18:36:46.343Z,16.10
2019-04-03T18:39:17.178Z,15.73
2019-04-03T18:41:48.308Z,17.23
2019-04-03T18:44:22.367Z,17.63
2019-04-03T18:46:51.831Z,18.20
2019-04-03T18:49:22.655Z,18.20
2019-04-03T18:51:53.804Z,17.37
2019-04-03T18:54:24.861Z,17.43
2019-04-03T18:56:55.472Z,17.70
2019-04-03T18:59:26.535Z,16.00
2019-04-03T19:01:57.501Z,18.40
2019-04-03T19:04:28.692Z,17.23
2019-04-03T19:06:59.544Z,15.27
2019-04-03T19:09:30.215Z,17.83
2019-04-03T19:12:08.324Z,18.83
2019-04-03T19:14:33.381Z,17.40
2019-04-03T19:17:04.768Z,18.33
2019-04-03T19:19:36.528Z,18.37
2019-04-03T19:22:07.297Z,18.23
2019-04-03T19:24:38.061Z,19.37
2019-04-03T19:27:09.015Z,19.17
2019-04-03T19:29:39.858Z,17.83
2019-04-03T19:32:12.322Z,19.57
2019-04-03T19:34:42.910Z,20.00
2019-04-03T19:37:13.623Z,19.23
2019-04-03T19:39:44.521Z,17.87
2019-04-03T19:42:15.145Z,18.23
2019-04-03T19:44:47.135Z,18.63
2019-04-03T19:47:18.526Z,18.03
2019-04-03T19:49:49.470Z,16.10
2019-04-03T19:52:20.207Z,16.93
2019-04-03T19:54:51.521Z,16.80
2019-04-03T19:57:22.919Z,16.13
2019-04-03T19:59:53.662Z,17.50
2019-04-03T20:02:24.599Z,16.40
2019-04-03T20:04:55.639Z,16.33
2019-04-03T20:07:27.281Z,18.43
2019-04-03T20:09:58.087Z,20.37
2019-04-03T20:12:29.111Z,21.30
2019-04-03T20:15:02.312Z,20.73
2019-04-03T20:17:34.723Z,22.53
2019-04-03T20:20:06.245Z,21.67
2019-04-03T20:22:37.887Z,23.20
2019-04-03T20:25:09.995Z,22.17
2019-04-03T20:27:40.875Z,19.83
2019-04-03T20:30:11.969Z,20.00
2019-04-03T20:32:42.812Z,17.47
2019-04-03T20:35:13.803Z,17.43
2019-04-03T20:37:44.664Z,16.77
2019-04-03T20:40:15.552Z,17.70
2019-04-03T20:42:46.319Z,16.50
2019-04-03T20:45:19.060Z,17.07
2019-04-03T20:47:49.663Z,16.27
2019-04-03T20:50:24.375Z,17.23
2019-04-03T20:52:56.922Z,16.10
2019-04-03T20:55:27.370Z,18.97
2019-04-03T20:57:57.978Z,18.73
2019-04-03T21:00:28.668Z,18.73
2019-04-03T21:02:59.660Z,20.37
2019-04-03T21:05:30.431Z,20.27
2019-04-03T21:08:01.312Z,18.87
2019-04-03T21:10:32.981Z,20.37
2019-04-03T21:13:03.883Z,18.37
2019-04-03T21:15:34.724Z,23.80
2019-04-03T21:18:06.499Z,20.60
2019-04-03T21:20:37.237Z,19.57
2019-04-03T21:23:07.801Z,20.50
2019-04-03T21:25:40.625Z,19.13
2019-04-03T21:28:10.975Z,20.93
2019-04-03T21:30:42.361Z,19.33
2019-04-03T21:33:13.019Z,21.47
2019-04-03T21:35:43.799Z,23.07
2019-04-03T21:38:14.603Z,23.20
2019-04-03T21:40:46.968Z,22.10
2019-04-03T21:43:17.602Z,22.97
2019-04-03T21:45:48.351Z,22.63
2019-04-03T21:48:20.397Z,22.33
2019-04-03T21:50:51.241Z,22.60
2019-04-03T21:53:24.151Z,23.47
2019-04-03T21:55:54.344Z,22.57
2019-04-03T21:58:24.924Z,22.63
2019-04-03T22:01:21.719Z,21.67
2019-04-03T22:03:53.275Z,23.10
2019-04-03T22:06:26.749Z,21.90
2019-04-03T22:08:59.685Z,23.07
2019-04-03T22:11:28.865Z,22.70
2019-04-03T22:13:59.573Z,22.43
2019-04-03T22:16:30.257Z,23.60
2019-04-03T22:19:00.986Z,22.20
2019-04-03T22:21:32.600Z,23.13
2019-04-03T22:24:06.581Z,22.47
2019-04-03T22:26:35.930Z,22.77
2019-04-03T22:29:06.662Z,21.17
2019-04-03T22:31:37.470Z,21.37
2019-04-03T22:34:08.664Z,24.13
2019-04-03T22:36:39.449Z,23.00
2019-04-03T22:39:13.484Z,22.80
2019-04-03T22:41:43.445Z,22.63
2019-04-03T22:44:16.770Z,22.73
2019-04-03T22:46:46.228Z,21.97
2019-04-03T22:49:16.698Z,24.57
2019-04-03T22:51:47.399Z,22.73
2019-04-03T22:54:18.272Z,22.80
2019-04-03T22:56:48.876Z,22.87
2019-04-03T22:59:19.456Z,21.80
2019-04-03T23:01:50.269Z,22.57
2019-04-03T23:04:21.272Z,23.43
2019-04-03T23:06:52.296Z,23.07
2019-04-03T23:09:25.434Z,22.10
2019-04-03T23:11:55.841Z,23.73
2019-04-03T23:14:26.938Z,21.10
2019-04-03T23:16:58.204Z,23.97
2019-04-03T23:19:32.227Z,22.57
2019-04-03T23:22:02.128Z,24.40
2019-04-03T23:24:32.597Z,25.50
2019-04-03T23:27:03.265Z,24.10
2019-04-03T23:29:36.642Z,23.50
2019-04-03T23:32:06.418Z,25.90
2019-04-03T23:34:37.345Z,21.90
2019-04-03T23:37:07.855Z,21.43
2019-04-03T23:39:38.301Z,19.80
2019-04-03T23:42:08.884Z,16.73
2019-04-03T23:44:41.840Z,18.87
2019-04-03T23:47:11.894Z,16.37
2019-04-03T23:49:42.667Z,15.50
2019-04-03T23:52:13.354Z,16.27
2019-04-03T23:54:44.006Z,15.70
2019-04-03T23:57:14.800Z,15.33
2019-04-03T23:59:45.423Z,16.77
